sensor_id;sensor_type;location;lat;lon;timestamp;P1;durP1;ratioP1;P2;durP2;ratioP2
59474;SDS011;45288;51.136;16.928;2023-11-19T00:02:14;692.78;;;560.95;;
59474;SDS011;45288;51.136;16.928;2023-11-19T00:04:39;694.13;;;572.60;;
59474;SDS011;45288;51.136;16.928;2023-11-19T00:07:05;693.97;;;572.00;;
59474;SDS011;45288;51.136;16.928;2023-11-19T00:09:33;702.15;;;564.20;;
59474;SDS011;45288;51.136;16.928;2023-11-19T00:12:02;689.22;;;555.60;;
59474;SDS011;45288;51.136;16.928;2023-11-19T00:14:29;693.92;;;570.97;;
59474;SDS011;45288;51.136;16.928;2023-11-19T00:16:55;687.55;;;563.28;;
59474;SDS011;45288;51.136;16.928;2023-11-19T00:19:21;680.25;;;578.30;;
59474;SDS011;45288;51.136;16.928;2023-11-19T00:21:47;692.88;;;562.05;;
59474;SDS011;45288;51.136;16.928;2023-11-19T00:24:13;681.92;;;549.38;;
59474;SDS011;45288;51.136;16.928;2023-11-19T00:26:42;691.33;;;545.17;;
59474;SDS011;45288;51.136;16.928;2023-11-19T00:29:08;685.23;;;536.67;;
59474;SDS011;45288;51.136;16.928;2023-11-19T00:31:33;685.97;;;534.63;;
59474;SDS011;45288;51.136;16.928;2023-11-19T00:34:00;697.30;;;537.88;;
59474;SDS011;45288;51.136;16.928;2023-11-19T00:36:27;682.97;;;528.75;;
59474;SDS011;45288;51.136;16.928;2023-11-19T00:38:53;682.53;;;537.13;;
59474;SDS011;45288;51.136;16.928;2023-11-19T00:41:20;687.70;;;525.65;;
59474;SDS011;45288;51.136;16.928;2023-11-19T00:43:46;695.20;;;528.25;;
59474;SDS011;45288;51.136;16.928;2023-11-19T00:46:12;687.80;;;531.57;;
59474;SDS011;45288;51.136;16.928;2023-11-19T00:48:39;696.35;;;537.53;;
59474;SDS011;45288;51.136;16.928;2023-11-19T00:51:05;682.45;;;529.85;;
59474;SDS011;45288;51.136;16.928;2023-11-19T00:53:31;693.90;;;529.83;;
59474;SDS011;45288;51.136;16.928;2023-11-19T00:56:00;692.13;;;526.17;;
59474;SDS011;45288;51.136;16.928;2023-11-19T00:58:26;680.93;;;507.47;;
59474;SDS011;45288;51.136;16.928;2023-11-19T01:00:52;690.97;;;522.47;;
59474;SDS011;45288;51.136;16.928;2023-11-19T01:03:18;692.60;;;531.35;;
59474;SDS011;45288;51.136;16.928;2023-11-19T01:05:44;686.22;;;530.83;;
59474;SDS011;45288;51.136;16.928;2023-11-19T01:08:12;694.95;;;540.53;;
59474;SDS011;45288;51.136;16.928;2023-11-19T01:10:38;691.60;;;527.08;;
59474;SDS011;45288;51.136;16.928;2023-11-19T01:13:04;682.42;;;517.25;;
59474;SDS011;45288;51.136;16.928;2023-11-19T01:15:32;670.22;;;537.65;;
59474;SDS011;45288;51.136;16.928;2023-11-19T01:17:58;676.92;;;532.15;;
59474;SDS011;45288;51.136;16.928;2023-11-19T01:20:24;670.33;;;530.50;;
59474;SDS011;45288;51.136;16.928;2023-11-19T01:22:50;692.95;;;536.67;;
59474;SDS011;45288;51.136;16.928;2023-11-19T01:25:16;660.55;;;518.65;;
59474;SDS011;45288;51.136;16.928;2023-11-19T01:27:43;667.05;;;530.55;;
59474;SDS011;45288;51.136;16.928;2023-11-19T01:30:09;675.60;;;496.60;;
59474;SDS011;45288;51.136;16.928;2023-11-19T01:32:38;679.33;;;513.95;;
59474;SDS011;45288;51.136;16.928;2023-11-19T01:35:06;686.83;;;515.55;;
59474;SDS011;45288;51.136;16.928;2023-11-19T01:37:33;688.23;;;516.17;;
59474;SDS011;45288;51.136;16.928;2023-11-19T01:40:01;691.75;;;516.65;;
59474;SDS011;45288;51.136;16.928;2023-11-19T01:42:28;677.53;;;505.65;;
59474;SDS011;45288;51.136;16.928;2023-11-19T01:45:00;677.40;;;514.60;;
59474;SDS011;45288;51.136;16.928;2023-11-19T01:47:26;671.88;;;529.20;;
59474;SDS011;45288;51.136;16.928;2023-11-19T01:49:54;672.22;;;528.58;;
59474;SDS011;45288;51.136;16.928;2023-11-19T01:52:22;668.03;;;522.77;;
59474;SDS011;45288;51.136;16.928;2023-11-19T01:54:48;675.83;;;514.80;;
59474;SDS011;45288;51.136;16.928;2023-11-19T01:57:15;675.45;;;527.25;;
59474;SDS011;45288;51.136;16.928;2023-11-19T01:59:42;686.77;;;532.30;;
59474;SDS011;45288;51.136;16.928;2023-11-19T02:02:09;676.22;;;517.88;;
59474;SDS011;45288;51.136;16.928;2023-11-19T02:04:34;674.47;;;507.30;;
59474;SDS011;45288;51.136;16.928;2023-11-19T02:07:00;688.57;;;537.27;;
59474;SDS011;45288;51.136;16.928;2023-11-19T02:09:26;681.33;;;527.17;;
59474;SDS011;45288;51.136;16.928;2023-11-19T02:11:53;690.78;;;529.83;;
59474;SDS011;45288;51.136;16.928;2023-11-19T02:14:22;689.95;;;522.00;;
59474;SDS011;45288;51.136;16.928;2023-11-19T02:16:52;687.50;;;522.47;;
59474;SDS011;45288;51.136;16.928;2023-11-19T02:19:20;691.67;;;517.90;;
59474;SDS011;45288;51.136;16.928;2023-11-19T02:21:46;684.08;;;520.47;;
59474;SDS011;45288;51.136;16.928;2023-11-19T02:24:13;681.47;;;519.38;;
59474;SDS011;45288;51.136;16.928;2023-11-19T02:29:21;684.25;;;497.70;;
59474;SDS011;45288;51.136;16.928;2023-11-19T02:31:47;686.67;;;505.90;;
59474;SDS011;45288;51.136;16.928;2023-11-19T02:34:13;686.78;;;499.58;;
59474;SDS011;45288;51.136;16.928;2023-11-19T02:36:39;676.10;;;476.20;;
59474;SDS011;45288;51.136;16.928;2023-11-19T02:39:07;680.70;;;491.58;;
59474;SDS011;45288;51.136;16.928;2023-11-19T02:41:36;677.22;;;491.05;;
59474;SDS011;45288;51.136;16.928;2023-11-19T02:44:05;682.70;;;507.60;;
59474;SDS011;45288;51.136;16.928;2023-11-19T02:46:32;677.88;;;507.70;;
59474;SDS011;45288;51.136;16.928;2023-11-19T02:48:58;680.60;;;513.83;;
59474;SDS011;45288;51.136;16.928;2023-11-19T02:51:24;682.10;;;516.75;;
59474;SDS011;45288;51.136;16.928;2023-11-19T02:53:49;690.50;;;511.45;;
59474;SDS011;45288;51.136;16.928;2023-11-19T02:56:15;683.57;;;515.70;;
59474;SDS011;45288;51.136;16.928;2023-11-19T02:58:46;685.65;;;506.88;;
59474;SDS011;45288;51.136;16.928;2023-11-19T03:01:12;682.85;;;513.38;;
59474;SDS011;45288;51.136;16.928;2023-11-19T03:03:48;683.55;;;518.03;;
59474;SDS011;45288;51.136;16.928;2023-11-19T03:06:20;672.70;;;501.10;;
59474;SDS011;45288;51.136;16.928;2023-11-19T03:08:47;686.97;;;498.83;;
59474;SDS011;45288;51.136;16.928;2023-11-19T03:11:13;681.20;;;499.60;;
59474;SDS011;45288;51.136;16.928;2023-11-19T03:13:39;681.67;;;497.97;;
59474;SDS011;45288;51.136;16.928;2023-11-19T03:16:06;687.80;;;497.35;;
59474;SDS011;45288;51.136;16.928;2023-11-19T03:18:33;672.10;;;477.38;;
59474;SDS011;45288;51.136;16.928;2023-11-19T03:20:58;675.63;;;472.65;;
59474;SDS011;45288;51.136;16.928;2023-11-19T03:23:25;600.00;;;503.13;;
59474;SDS011;45288;51.136;16.928;2023-11-19T03:25:53;645.67;;;510.40;;
59474;SDS011;45288;51.136;16.928;2023-11-19T03:28:21;634.13;;;498.95;;
59474;SDS011;45288;51.136;16.928;2023-11-19T03:30:46;613.08;;;503.52;;
59474;SDS011;45288;51.136;16.928;2023-11-19T03:33:12;622.15;;;506.40;;
59474;SDS011;45288;51.136;16.928;2023-11-19T03:35:38;591.33;;;524.90;;
59474;SDS011;45288;51.136;16.928;2023-11-19T03:38:06;579.70;;;517.30;;
59474;SDS011;45288;51.136;16.928;2023-11-19T03:40:32;637.20;;;516.17;;
59474;SDS011;45288;51.136;16.928;2023-11-19T03:42:58;627.80;;;513.63;;
59474;SDS011;45288;51.136;16.928;2023-11-19T03:45:24;572.60;;;513.13;;
59474;SDS011;45288;51.136;16.928;2023-11-19T03:47:50;595.08;;;524.58;;
59474;SDS011;45288;51.136;16.928;2023-11-19T03:50:17;630.05;;;502.17;;
59474;SDS011;45288;51.136;16.928;2023-11-19T03:52:45;590.93;;;526.57;;
59474;SDS011;45288;51.136;16.928;2023-11-19T03:55:12;587.45;;;522.40;;
59474;SDS011;45288;51.136;16.928;2023-11-19T03:57:38;620.33;;;503.87;;
59474;SDS011;45288;51.136;16.928;2023-11-19T04:00:04;622.10;;;510.98;;
59474;SDS011;45288;51.136;16.928;2023-11-19T04:02:38;612.33;;;510.50;;
59474;SDS011;45288;51.136;16.928;2023-11-19T04:05:04;612.60;;;524.78;;
59474;SDS011;45288;51.136;16.928;2023-11-19T04:07:30;611.15;;;506.05;;
59474;SDS011;45288;51.136;16.928;2023-11-19T04:09:57;613.07;;;519.93;;
59474;SDS011;45288;51.136;16.928;2023-11-19T04:12:24;588.43;;;526.47;;
59474;SDS011;45288;51.136;16.928;2023-11-19T04:14:49;587.23;;;523.07;;
59474;SDS011;45288;51.136;16.928;2023-11-19T04:17:17;596.40;;;535.08;;
59474;SDS011;45288;51.136;16.928;2023-11-19T04:19:43;596.78;;;535.00;;
59474;SDS011;45288;51.136;16.928;2023-11-19T04:22:09;608.63;;;546.25;;
59474;SDS011;45288;51.136;16.928;2023-11-19T04:24:35;594.30;;;531.33;;
59474;SDS011;45288;51.136;16.928;2023-11-19T04:27:01;586.40;;;520.65;;
59474;SDS011;45288;51.136;16.928;2023-11-19T04:29:26;596.47;;;531.13;;
59474;SDS011;45288;51.136;16.928;2023-11-19T04:31:53;596.50;;;531.13;;
59474;SDS011;45288;51.136;16.928;2023-11-19T04:34:18;591.33;;;526.23;;
59474;SDS011;45288;51.136;16.928;2023-11-19T04:36:44;591.90;;;527.28;;
59474;SDS011;45288;51.136;16.928;2023-11-19T04:39:10;598.35;;;533.20;;
59474;SDS011;45288;51.136;16.928;2023-11-19T04:41:45;596.20;;;532.15;;
59474;SDS011;45288;51.136;16.928;2023-11-19T04:44:15;599.47;;;534.80;;
59474;SDS011;45288;51.136;16.928;2023-11-19T04:46:41;602.92;;;538.30;;
59474;SDS011;45288;51.136;16.928;2023-11-19T04:49:09;612.63;;;546.33;;
59474;SDS011;45288;51.136;16.928;2023-11-19T04:51:39;603.67;;;538.58;;
59474;SDS011;45288;51.136;16.928;2023-11-19T04:54:10;617.78;;;552.45;;
59474;SDS011;45288;51.136;16.928;2023-11-19T04:56:36;608.83;;;545.22;;
59474;SDS011;45288;51.136;16.928;2023-11-19T04:59:05;618.42;;;554.30;;
59474;SDS011;45288;51.136;16.928;2023-11-19T05:01:32;613.67;;;549.37;;
59474;SDS011;45288;51.136;16.928;2023-11-19T05:03:58;600.55;;;536.42;;
59474;SDS011;45288;51.136;16.928;2023-11-19T05:06:28;588.58;;;525.03;;
59474;SDS011;45288;51.136;16.928;2023-11-19T05:08:55;625.20;;;560.65;;
59474;SDS011;45288;51.136;16.928;2023-11-19T05:11:21;614.67;;;551.50;;
59474;SDS011;45288;51.136;16.928;2023-11-19T05:13:47;622.38;;;558.97;;
59474;SDS011;45288;51.136;16.928;2023-11-19T05:16:13;616.10;;;553.83;;
59474;SDS011;45288;51.136;16.928;2023-11-19T05:18:40;608.17;;;545.95;;
59474;SDS011;45288;51.136;16.928;2023-11-19T05:21:06;612.97;;;549.85;;
59474;SDS011;45288;51.136;16.928;2023-11-19T05:23:33;619.97;;;556.13;;
59474;SDS011;45288;51.136;16.928;2023-11-19T05:26:00;604.47;;;541.72;;
59474;SDS011;45288;51.136;16.928;2023-11-19T05:28:26;580.55;;;518.78;;
59474;SDS011;45288;51.136;16.928;2023-11-19T05:30:52;608.08;;;545.33;;
59474;SDS011;45288;51.136;16.928;2023-11-19T05:33:18;607.80;;;545.00;;
59474;SDS011;45288;51.136;16.928;2023-11-19T05:35:44;615.25;;;552.58;;
59474;SDS011;45288;51.136;16.928;2023-11-19T05:38:10;622.60;;;558.75;;
59474;SDS011;45288;51.136;16.928;2023-11-19T05:40:36;623.10;;;559.42;;
59474;SDS011;45288;51.136;16.928;2023-11-19T05:43:04;623.67;;;561.50;;
59474;SDS011;45288;51.136;16.928;2023-11-19T05:45:30;619.72;;;557.10;;
59474;SDS011;45288;51.136;16.928;2023-11-19T05:47:57;645.67;;;581.28;;
59474;SDS011;45288;51.136;16.928;2023-11-19T05:50:23;620.83;;;560.13;;
59474;SDS011;45288;51.136;16.928;2023-11-19T05:52:49;640.28;;;577.35;;
59474;SDS011;45288;51.136;16.928;2023-11-19T05:55:15;627.88;;;565.05;;
59474;SDS011;45288;51.136;16.928;2023-11-19T05:57:41;622.85;;;560.83;;
59474;SDS011;45288;51.136;16.928;2023-11-19T06:00:07;633.30;;;569.83;;
59474;SDS011;45288;51.136;16.928;2023-11-19T06:02:38;623.70;;;560.30;;
59474;SDS011;45288;51.136;16.928;2023-11-19T06:05:04;640.63;;;566.53;;
59474;SDS011;45288;51.136;16.928;2023-11-19T06:07:32;625.10;;;557.35;;
59474;SDS011;45288;51.136;16.928;2023-11-19T06:09:58;636.00;;;567.40;;
59474;SDS011;45288;51.136;16.928;2023-11-19T06:12:24;629.97;;;562.50;;
59474;SDS011;45288;51.136;16.928;2023-11-19T06:14:50;623.33;;;556.80;;
59474;SDS011;45288;51.136;16.928;2023-11-19T06:17:15;612.30;;;547.33;;
59474;SDS011;45288;51.136;16.928;2023-11-19T06:19:41;609.95;;;546.00;;
59474;SDS011;45288;51.136;16.928;2023-11-19T06:22:07;636.22;;;569.53;;
59474;SDS011;45288;51.136;16.928;2023-11-19T06:24:33;633.40;;;567.47;;
59474;SDS011;45288;51.136;16.928;2023-11-19T06:26:59;629.15;;;562.47;;
59474;SDS011;45288;51.136;16.928;2023-11-19T06:29:25;627.58;;;562.28;;
59474;SDS011;45288;51.136;16.928;2023-11-19T06:31:51;628.93;;;562.67;;
59474;SDS011;45288;51.136;16.928;2023-11-19T06:34:16;630.90;;;564.03;;
59474;SDS011;45288;51.136;16.928;2023-11-19T06:36:42;635.30;;;569.15;;
59474;SDS011;45288;51.136;16.928;2023-11-19T06:39:11;632.55;;;566.22;;
59474;SDS011;45288;51.136;16.928;2023-11-19T06:41:37;628.08;;;562.20;;
59474;SDS011;45288;51.136;16.928;2023-11-19T06:44:04;641.95;;;574.40;;
59474;SDS011;45288;51.136;16.928;2023-11-19T06:46:30;655.55;;;587.63;;
59474;SDS011;45288;51.136;16.928;2023-11-19T06:48:57;653.83;;;585.60;;
59474;SDS011;45288;51.136;16.928;2023-11-19T06:51:23;634.50;;;569.03;;
59474;SDS011;45288;51.136;16.928;2023-11-19T06:53:50;620.47;;;556.13;;
59474;SDS011;45288;51.136;16.928;2023-11-19T06:56:22;635.23;;;569.93;;
59474;SDS011;45288;51.136;16.928;2023-11-19T06:58:49;627.10;;;562.13;;
59474;SDS011;45288;51.136;16.928;2023-11-19T07:01:16;632.97;;;566.58;;
59474;SDS011;45288;51.136;16.928;2023-11-19T07:03:46;626.05;;;560.75;;
59474;SDS011;45288;51.136;16.928;2023-11-19T07:06:12;633.28;;;566.30;;
59474;SDS011;45288;51.136;16.928;2023-11-19T07:08:40;616.83;;;552.72;;
59474;SDS011;45288;51.136;16.928;2023-11-19T07:11:06;637.22;;;571.30;;
59474;SDS011;45288;51.136;16.928;2023-11-19T07:13:35;629.13;;;564.78;;
59474;SDS011;45288;51.136;16.928;2023-11-19T07:16:01;636.17;;;569.65;;
59474;SDS011;45288;51.136;16.928;2023-11-19T07:18:30;632.03;;;566.20;;
59474;SDS011;45288;51.136;16.928;2023-11-19T07:20:57;633.53;;;567.70;;
59474;SDS011;45288;51.136;16.928;2023-11-19T07:23:25;630.22;;;565.15;;
59474;SDS011;45288;51.136;16.928;2023-11-19T07:25:51;643.75;;;576.95;;
59474;SDS011;45288;51.136;16.928;2023-11-19T07:28:18;632.28;;;566.25;;
59474;SDS011;45288;51.136;16.928;2023-11-19T07:30:44;644.00;;;577.87;;
59474;SDS011;45288;51.136;16.928;2023-11-19T07:33:10;656.50;;;581.35;;
59474;SDS011;45288;51.136;16.928;2023-11-19T07:35:37;637.28;;;567.00;;
59474;SDS011;45288;51.136;16.928;2023-11-19T07:38:02;644.33;;;573.95;;
59474;SDS011;45288;51.136;16.928;2023-11-19T07:40:28;641.67;;;568.60;;
59474;SDS011;45288;51.136;16.928;2023-11-19T07:42:54;672.20;;;577.10;;
59474;SDS011;45288;51.136;16.928;2023-11-19T07:45:20;648.63;;;575.97;;
59474;SDS011;45288;51.136;16.928;2023-11-19T07:47:46;670.87;;;574.23;;
59474;SDS011;45288;51.136;16.928;2023-11-19T07:50:12;695.50;;;564.07;;
59474;SDS011;45288;51.136;16.928;2023-11-19T07:52:42;633.85;;;562.90;;
59474;SDS011;45288;51.136;16.928;2023-11-19T07:55:08;659.95;;;589.45;;
59474;SDS011;45288;51.136;16.928;2023-11-19T07:57:34;667.00;;;596.45;;
59474;SDS011;45288;51.136;16.928;2023-11-19T08:00:00;656.83;;;588.78;;
59474;SDS011;45288;51.136;16.928;2023-11-19T08:02:38;672.38;;;602.30;;
59474;SDS011;45288;51.136;16.928;2023-11-19T08:05:04;669.97;;;598.90;;
59474;SDS011;45288;51.136;16.928;2023-11-19T08:07:30;672.63;;;603.83;;
59474;SDS011;45288;51.136;16.928;2023-11-19T08:09:56;673.40;;;604.83;;
59474;SDS011;45288;51.136;16.928;2023-11-19T08:12:21;669.25;;;600.47;;
59474;SDS011;45288;51.136;16.928;2023-11-19T08:14:48;679.45;;;610.10;;
59474;SDS011;45288;51.136;16.928;2023-11-19T08:17:14;692.92;;;622.50;;
59474;SDS011;45288;51.136;16.928;2023-11-19T08:19:42;685.47;;;615.47;;
59474;SDS011;45288;51.136;16.928;2023-11-19T08:22:08;686.65;;;615.67;;
59474;SDS011;45288;51.136;16.928;2023-11-19T08:24:35;685.72;;;616.88;;
59474;SDS011;45288;51.136;16.928;2023-11-19T08:27:00;693.60;;;622.90;;
59474;SDS011;45288;51.136;16.928;2023-11-19T08:29:26;673.33;;;603.88;;
59474;SDS011;45288;51.136;16.928;2023-11-19T08:31:53;670.03;;;600.03;;
59474;SDS011;45288;51.136;16.928;2023-11-19T08:34:19;664.13;;;595.73;;
59474;SDS011;45288;51.136;16.928;2023-11-19T08:36:44;660.93;;;591.83;;
59474;SDS011;45288;51.136;16.928;2023-11-19T08:39:10;683.15;;;612.90;;
59474;SDS011;45288;51.136;16.928;2023-11-19T08:41:36;662.63;;;593.78;;
59474;SDS011;45288;51.136;16.928;2023-11-19T08:44:03;655.13;;;586.65;;
59474;SDS011;45288;51.136;16.928;2023-11-19T08:46:29;651.70;;;583.42;;
59474;SDS011;45288;51.136;16.928;2023-11-19T08:48:55;658.22;;;589.17;;
59474;SDS011;45288;51.136;16.928;2023-11-19T08:51:23;642.78;;;574.30;;
59474;SDS011;45288;51.136;16.928;2023-11-19T08:53:50;642.28;;;574.25;;
59474;SDS011;45288;51.136;16.928;2023-11-19T08:56:16;635.28;;;567.47;;
59474;SDS011;45288;51.136;16.928;2023-11-19T08:58:42;641.50;;;565.83;;
59474;SDS011;45288;51.136;16.928;2023-11-19T09:01:07;678.57;;;538.90;;
59474;SDS011;45288;51.136;16.928;2023-11-19T09:03:35;674.65;;;529.85;;
59474;SDS011;45288;51.136;16.928;2023-11-19T09:06:02;681.03;;;534.92;;
59474;SDS011;45288;51.136;16.928;2023-11-19T09:08:29;674.15;;;548.90;;
59474;SDS011;45288;51.136;16.928;2023-11-19T09:10:55;684.70;;;546.50;;
59474;SDS011;45288;51.136;16.928;2023-11-19T09:13:21;687.67;;;543.67;;
59474;SDS011;45288;51.136;16.928;2023-11-19T09:15:47;667.90;;;553.00;;
59474;SDS011;45288;51.136;16.928;2023-11-19T09:18:13;687.13;;;567.73;;
59474;SDS011;45288;51.136;16.928;2023-11-19T09:20:39;670.17;;;569.20;;
59474;SDS011;45288;51.136;16.928;2023-11-19T09:23:05;675.20;;;566.72;;
59474;SDS011;45288;51.136;16.928;2023-11-19T09:25:31;665.40;;;575.67;;
59474;SDS011;45288;51.136;16.928;2023-11-19T09:27:57;674.80;;;591.65;;
59474;SDS011;45288;51.136;16.928;2023-11-19T09:30:23;717.63;;;592.70;;
59474;SDS011;45288;51.136;16.928;2023-11-19T09:32:49;690.55;;;571.90;;
59474;SDS011;45288;51.136;16.928;2023-11-19T09:35:14;693.37;;;581.20;;
59474;SDS011;45288;51.136;16.928;2023-11-19T09:37:42;689.55;;;587.25;;
59474;SDS011;45288;51.136;16.928;2023-11-19T09:40:08;692.92;;;597.63;;
59474;SDS011;45288;51.136;16.928;2023-11-19T09:42:42;689.80;;;591.50;;
59474;SDS011;45288;51.136;16.928;2023-11-19T09:45:13;695.50;;;594.60;;
59474;SDS011;45288;51.136;16.928;2023-11-19T09:47:42;677.88;;;603.67;;
59474;SDS011;45288;51.136;16.928;2023-11-19T09:50:10;707.63;;;619.63;;
59474;SDS011;45288;51.136;16.928;2023-11-19T09:52:42;701.70;;;607.72;;
59474;SDS011;45288;51.136;16.928;2023-11-19T09:55:08;697.30;;;607.15;;
59474;SDS011;45288;51.136;16.928;2023-11-19T09:57:34;696.40;;;601.75;;
59474;SDS011;45288;51.136;16.928;2023-11-19T10:00:03;697.20;;;603.35;;
59474;SDS011;45288;51.136;16.928;2023-11-19T10:02:34;678.83;;;580.88;;
59474;SDS011;45288;51.136;16.928;2023-11-19T10:05:04;697.33;;;614.00;;
59474;SDS011;45288;51.136;16.928;2023-11-19T10:07:32;692.25;;;608.58;;
59474;SDS011;45288;51.136;16.928;2023-11-19T10:09:59;700.80;;;629.83;;
59474;SDS011;45288;51.136;16.928;2023-11-19T10:12:27;692.50;;;619.10;;
59474;SDS011;45288;51.136;16.928;2023-11-19T10:14:57;708.42;;;635.22;;
59474;SDS011;45288;51.136;16.928;2023-11-19T10:17:27;718.40;;;646.13;;
59474;SDS011;45288;51.136;16.928;2023-11-19T10:19:54;717.53;;;646.45;;
59474;SDS011;45288;51.136;16.928;2023-11-19T10:22:22;721.05;;;650.47;;
59474;SDS011;45288;51.136;16.928;2023-11-19T10:24:50;718.55;;;648.10;;
59474;SDS011;45288;51.136;16.928;2023-11-19T10:27:15;703.95;;;633.42;;
59474;SDS011;45288;51.136;16.928;2023-11-19T10:29:44;717.45;;;646.35;;
59474;SDS011;45288;51.136;16.928;2023-11-19T10:32:13;723.47;;;649.80;;
59474;SDS011;45288;51.136;16.928;2023-11-19T10:34:42;734.38;;;659.53;;
59474;SDS011;45288;51.136;16.928;2023-11-19T10:37:09;723.15;;;647.25;;
59474;SDS011;45288;51.136;16.928;2023-11-19T10:39:52;713.97;;;636.63;;
59474;SDS011;45288;51.136;16.928;2023-11-19T10:42:20;711.25;;;635.35;;
59474;SDS011;45288;51.136;16.928;2023-11-19T10:44:46;715.80;;;638.43;;
59474;SDS011;45288;51.136;16.928;2023-11-19T10:47:15;721.55;;;643.63;;
59474;SDS011;45288;51.136;16.928;2023-11-19T10:49:45;718.25;;;641.00;;
59474;SDS011;45288;51.136;16.928;2023-11-19T10:52:11;741.35;;;665.63;;
59474;SDS011;45288;51.136;16.928;2023-11-19T10:54:40;742.00;;;664.35;;
59474;SDS011;45288;51.136;16.928;2023-11-19T10:57:09;735.25;;;657.40;;
59474;SDS011;45288;51.136;16.928;2023-11-19T10:59:42;730.95;;;655.67;;
59474;SDS011;45288;51.136;16.928;2023-11-19T11:02:11;746.33;;;671.87;;
59474;SDS011;45288;51.136;16.928;2023-11-19T11:04:44;739.53;;;666.20;;
59474;SDS011;45288;51.136;16.928;2023-11-19T11:07:13;732.38;;;664.13;;
59474;SDS011;45288;51.136;16.928;2023-11-19T11:09:41;748.38;;;678.03;;
59474;SDS011;45288;51.136;16.928;2023-11-19T11:12:07;757.35;;;686.53;;
59474;SDS011;45288;51.136;16.928;2023-11-19T11:14:37;754.38;;;686.25;;
59474;SDS011;45288;51.136;16.928;2023-11-19T11:17:03;764.05;;;694.47;;
59474;SDS011;45288;51.136;16.928;2023-11-19T11:19:33;767.58;;;699.33;;
59474;SDS011;45288;51.136;16.928;2023-11-19T11:22:00;775.47;;;706.63;;
59474;SDS011;45288;51.136;16.928;2023-11-19T11:36:21;804.77;;;730.57;;
59474;SDS011;45288;51.136;16.928;2023-11-19T11:38:48;801.38;;;730.88;;
59474;SDS011;45288;51.136;16.928;2023-11-19T11:41:21;801.30;;;730.50;;
59474;SDS011;45288;51.136;16.928;2023-11-19T11:43:51;804.65;;;737.88;;
59474;SDS011;45288;51.136;16.928;2023-11-19T11:47:06;825.13;;;755.15;;
59474;SDS011;45288;51.136;16.928;2023-11-19T11:49:07;815.97;;;747.95;;
59474;SDS011;45288;51.136;16.928;2023-11-19T11:57:01;828.20;;;759.73;;
59474;SDS011;45288;51.136;16.928;2023-11-19T11:59:37;836.45;;;768.78;;
59474;SDS011;45288;51.136;16.928;2023-11-19T12:02:16;828.30;;;757.67;;
59474;SDS011;45288;51.136;16.928;2023-11-19T12:04:50;815.78;;;745.72;;
59474;SDS011;45288;51.136;16.928;2023-11-19T12:07:18;832.03;;;761.90;;
59474;SDS011;45288;51.136;16.928;2023-11-19T12:10:08;847.97;;;778.83;;
59474;SDS011;45288;51.136;16.928;2023-11-19T12:12:34;833.15;;;765.72;;
59474;SDS011;45288;51.136;16.928;2023-11-19T12:15:04;842.97;;;772.78;;
59474;SDS011;45288;51.136;16.928;2023-11-19T12:20:00;839.72;;;769.40;;
59474;SDS011;45288;51.136;16.928;2023-11-19T12:22:27;848.05;;;776.72;;
59474;SDS011;45288;51.136;16.928;2023-11-19T12:24:56;841.15;;;772.58;;
59474;SDS011;45288;51.136;16.928;2023-11-19T12:27:22;844.55;;;774.67;;
59474;SDS011;45288;51.136;16.928;2023-11-19T12:29:48;856.10;;;786.28;;
59474;SDS011;45288;51.136;16.928;2023-11-19T12:32:14;850.92;;;782.38;;
59474;SDS011;45288;51.136;16.928;2023-11-19T12:34:40;851.58;;;782.70;;
59474;SDS011;45288;51.136;16.928;2023-11-19T12:37:07;850.00;;;781.10;;
59474;SDS011;45288;51.136;16.928;2023-11-19T12:39:34;862.50;;;792.10;;
59474;SDS011;45288;51.136;16.928;2023-11-19T12:42:00;864.30;;;793.55;;
59474;SDS011;45288;51.136;16.928;2023-11-19T12:44:26;859.90;;;788.63;;
59474;SDS011;45288;51.136;16.928;2023-11-19T12:47:04;855.37;;;778.73;;
59474;SDS011;45288;51.136;16.928;2023-11-19T12:49:33;867.50;;;790.13;;
59474;SDS011;45288;51.136;16.928;2023-11-19T12:51:59;875.75;;;795.80;;
59474;SDS011;45288;51.136;16.928;2023-11-19T12:54:37;875.47;;;793.38;;
59474;SDS011;45288;51.136;16.928;2023-11-19T12:57:03;864.93;;;785.13;;
59474;SDS011;45288;51.136;16.928;2023-11-19T12:59:30;853.03;;;772.77;;
59474;SDS011;45288;51.136;16.928;2023-11-19T13:01:57;857.28;;;775.58;;
59474;SDS011;45288;51.136;16.928;2023-11-19T13:04:27;867.47;;;784.40;;
59474;SDS011;45288;51.136;16.928;2023-11-19T13:06:54;861.30;;;779.77;;
59474;SDS011;45288;51.136;16.928;2023-11-19T13:09:27;871.83;;;789.63;;
59474;SDS011;45288;51.136;16.928;2023-11-19T13:11:53;866.13;;;784.53;;
59474;SDS011;45288;51.136;16.928;2023-11-19T13:14:20;869.90;;;788.25;;
59474;SDS011;45288;51.136;16.928;2023-11-19T13:16:46;868.72;;;787.58;;
59474;SDS011;45288;51.136;16.928;2023-11-19T13:19:13;877.53;;;796.63;;
59474;SDS011;45288;51.136;16.928;2023-11-19T13:21:41;883.30;;;803.30;;
59474;SDS011;45288;51.136;16.928;2023-11-19T13:24:07;889.17;;;808.83;;
59474;SDS011;45288;51.136;16.928;2023-11-19T13:26:33;902.38;;;821.15;;
59474;SDS011;45288;51.136;16.928;2023-11-19T13:29:00;901.50;;;821.92;;
59474;SDS011;45288;51.136;16.928;2023-11-19T13:31:26;910.25;;;828.30;;
59474;SDS011;45288;51.136;16.928;2023-11-19T13:33:51;900.97;;;821.05;;
59474;SDS011;45288;51.136;16.928;2023-11-19T13:36:17;922.43;;;840.50;;
59474;SDS011;45288;51.136;16.928;2023-11-19T13:38:44;908.72;;;829.05;;
59474;SDS011;45288;51.136;16.928;2023-11-19T13:41:10;911.65;;;831.53;;
59474;SDS011;45288;51.136;16.928;2023-11-19T13:43:37;924.38;;;843.22;;
59474;SDS011;45288;51.136;16.928;2023-11-19T13:46:03;926.22;;;844.22;;
59474;SDS011;45288;51.136;16.928;2023-11-19T13:48:29;921.30;;;840.22;;
59474;SDS011;45288;51.136;16.928;2023-11-19T13:50:55;926.58;;;844.85;;
59474;SDS011;45288;51.136;16.928;2023-11-19T13:53:21;941.25;;;858.08;;
59474;SDS011;45288;51.136;16.928;2023-11-19T13:55:49;939.00;;;858.22;;
59474;SDS011;45288;51.136;16.928;2023-11-19T13:58:15;947.25;;;865.58;;
59474;SDS011;45288;51.136;16.928;2023-11-19T14:00:41;959.37;;;877.83;;
59474;SDS011;45288;51.136;16.928;2023-11-19T14:03:08;955.97;;;873.65;;
59474;SDS011;45288;51.136;16.928;2023-11-19T14:05:37;956.42;;;875.58;;
59474;SDS011;45288;51.136;16.928;2023-11-19T14:08:04;967.97;;;886.67;;